Time;durP1;ratioP1;P1;durP2;ratioP2;P2;SDS_P1;SDS_P2;PMS_P1;PMS_P2;Temp;Humidity;BMP_temperature;BMP_pressure;BME280_temperature;BME280_humidity;BME280_pressure;Samples;Min_cycle;Max_cycle;Signal;HPM_P1;HPM_P2
2022/06/03 00:00:09;;;;;;;16.30;7.43;;;;;;;;;;4953158;28;20148;-70
2022/06/03 00:03:11;;;;;;;12.40;5.57;;;;;;;;;;4967823;28;20098;-70
2022/06/03 00:06:11;;;;;;;10.38;5.20;;;;;;;;;;4972096;28;20077;-71
2022/06/03 00:09:04;;;;;;;11.73;5.32;;;;;;;;;;4906505;29;20059;-70
2022/06/03 00:11:58;;;;;;;12.13;5.05;;;;;;;;;;4914045;29;20196;-70
2022/06/03 00:14:37;;;;;;;11.52;4.90;;;;;;;;;;4925535;29;20052;-71
2022/06/03 00:17:37;;;;;;;19.30;7.43;;;;;;;;;;4933706;29;20167;-70
2022/06/03 00:20:31;;;;;;;11.40;5.10;;;;;;;;;;4876981;29;20064;-70
2022/06/03 00:23:09;;;;;;;13.95;4.72;;;;;;;;;;4877019;29;20060;-71
2022/06/03 00:25:51;;;;;;;8.55;3.83;;;;;;;;;;4876999;29;20069;-71
2022/06/03 00:29:08;;;;;;;12.15;4.53;;;;;;;;;;4914153;29;20060;-71
2022/06/03 00:31:57;;;;;;;10.82;4.47;;;;;;;;;;4850769;29;20068;-71
2022/06/03 00:34:33;;;;;;;9.18;4.35;;;;;;;;;;4839566;29;20181;-71
2022/06/03 00:37:31;;;;;;;11.55;4.78;;;;;;;;;;4844808;29;20054;-71
2022/06/03 00:40:28;;;;;;;11.63;4.47;;;;;;;;;;4857430;29;20049;-71
2022/06/03 00:43:37;;;;;;;67.28;25.00;;;;;;;;;;4858044;29;20061;-71
2022/06/03 00:46:43;;;;;;;76.32;25.70;;;;;;;;;;4891973;29;20067;-71
2022/06/03 00:49:49;;;;;;;26.10;9.55;;;;;;;;;;4932514;29;20048;-71
2022/06/03 00:52:47;;;;;;;13.02;5.05;;;;;;;;;;4933011;29;20060;-70
2022/06/03 00:55:56;;;;;;;13.98;5.65;;;;;;;;;;4932366;29;20420;-70
2022/06/03 00:58:40;;;;;;;20.02;7.43;;;;;;;;;;4955117;28;20515;-69
2022/06/03 01:01:24;;;;;;;12.35;5.10;;;;;;;;;;4970934;28;20055;-69
2022/06/03 01:04:16;;;;;;;47.90;17.30;;;;;;;;;;4971334;28;20069;-68
2022/06/03 01:07:07;;;;;;;17.17;6.28;;;;;;;;;;5020369;28;20049;-66
2022/06/03 01:10:00;;;;;;;16.15;6.63;;;;;;;;;;5069729;28;20036;-68
2022/06/03 01:12:57;;;;;;;10.25;4.75;;;;;;;;;;5029517;28;20413;-69
2022/06/03 01:15:46;;;;;;;9.48;3.95;;;;;;;;;;5029736;28;20053;-68
2022/06/03 01:18:38;;;;;;;8.52;3.75;;;;;;;;;;5058843;28;20067;-68
2022/06/03 01:21:22;;;;;;;9.00;4.32;;;;;;;;;;5053455;28;20408;-68
2022/06/03 01:24:11;;;;;;;9.18;4.07;;;;;;;;;;5069658;28;20057;-69
2022/06/03 01:27:21;;;;;;;12.90;4.97;;;;;;;;;;5060832;28;20513;-69
2022/06/03 01:29:57;;;;;;;12.07;4.90;;;;;;;;;;5034632;28;20057;-69
2022/06/03 01:33:08;;;;;;;11.05;4.75;;;;;;;;;;5049226;28;20045;-70
2022/06/03 01:35:56;;;;;;;11.73;4.72;;;;;;;;;;5049283;28;20052;-69
2022/06/03 01:38:38;;;;;;;9.18;3.90;;;;;;;;;;5009225;28;20045;-69
2022/06/03 01:41:12;;;;;;;15.68;6.28;;;;;;;;;;5009505;28;20053;-68
2022/06/03 01:43:53;;;;;;;9.57;4.43;;;;;;;;;;4976640;28;20050;-69
2022/06/03 01:46:30;;;;;;;9.25;3.97;;;;;;;;;;4993702;28;20533;-69
2022/06/03 01:49:29;;;;;;;9.85;4.85;;;;;;;;;;5009709;28;20057;-68
2022/06/03 01:52:34;;;;;;;9.80;4.38;;;;;;;;;;5029196;28;20061;-68
2022/06/03 01:55:38;;;;;;;15.27;6.05;;;;;;;;;;5028971;28;20061;-68
2022/06/03 01:58:20;;;;;;;11.07;4.95;;;;;;;;;;5028886;28;20049;-69
2022/06/03 02:01:27;;;;;;;9.82;4.38;;;;;;;;;;5049096;28;20405;-69
2022/06/03 02:04:16;;;;;;;8.88;3.53;;;;;;;;;;4969901;28;20065;-69
2022/06/03 02:07:01;;;;;;;9.88;4.95;;;;;;;;;;4969572;28;20427;-68
2022/06/03 02:09:43;;;;;;;9.23;3.90;;;;;;;;;;4970132;28;20055;-68
2022/06/03 02:12:37;;;;;;;8.73;5.03;;;;;;;;;;4970221;28;20474;-68
2022/06/03 02:15:30;;;;;;;9.73;4.07;;;;;;;;;;4922039;28;20059;-70
2022/06/03 02:18:28;;;;;;;8.65;3.63;;;;;;;;;;4970027;28;20054;-68
2022/06/03 02:21:26;;;;;;;8.25;3.80;;;;;;;;;;4970191;28;20050;-69
2022/06/03 02:23:56;;;;;;;;;;;;;;;;;;4970573;28;20062;-68
2022/06/03 02:26:44;;;;;;;10.13;3.95;;;;;;;;;;4970230;28;19922;-68
2022/06/03 02:32:42;;;;;;;7.40;2.90;;;;;;;;;;4953818;28;20063;-67
2022/06/03 02:35:32;;;;;;;9.13;3.53;;;;;;;;;;4970213;28;20078;-68
2022/06/03 02:38:27;;;;;;;8.30;3.70;;;;;;;;;;4983203;28;20069;-68
2022/06/03 02:41:15;;;;;;;7.88;3.42;;;;;;;;;;5030447;28;20076;-68
2022/06/03 02:43:49;;;;;;;8.85;3.33;;;;;;;;;;5071311;28;20481;-68
2022/06/03 02:46:41;;;;;;;7.88;3.75;;;;;;;;;;5048524;28;20382;-67
2022/06/03 02:49:41;;;;;;;10.73;4.13;;;;;;;;;;5031988;28;20056;-68
2022/06/03 02:52:38;;;;;;;8.75;3.45;;;;;;;;;;5048449;28;20421;-67
2022/06/03 02:56:07;;;;;;;7.85;3.17;;;;;;;;;;5048361;28;20052;-68
2022/06/03 02:59:02;;;;;;;8.05;3.40;;;;;;;;;;4950031;29;20051;-68
2022/06/03 03:01:57;;;;;;;8.23;3.83;;;;;;;;;;4950451;29;20431;-68
2022/06/03 03:05:04;;;;;;;7.57;3.83;;;;;;;;;;4950303;29;20055;-68
2022/06/03 03:07:47;;;;;;;7.47;4.18;;;;;;;;;;4918425;29;20401;-69
2022/06/03 03:10:36;;;;;;;7.43;3.25;;;;;;;;;;4950281;29;20055;-68
2022/06/03 03:13:48;;;;;;;10.57;3.63;;;;;;;;;;4918476;29;20055;-68
2022/06/03 03:16:28;;;;;;;6.78;3.40;;;;;;;;;;4930987;29;20531;-68
2022/06/03 03:19:08;;;;;;;7.78;3.90;;;;;;;;;;4932938;29;20463;-68
2022/06/03 03:22:15;;;;;;;7.55;4.22;;;;;;;;;;4915566;29;20417;-68
2022/06/03 03:25:11;;;;;;;7.22;3.42;;;;;;;;;;4930908;29;20047;-68
2022/06/03 03:27:56;;;;;;;7.43;3.60;;;;;;;;;;4934374;29;20063;-69
2022/06/03 03:30:42;;;;;;;10.77;3.35;;;;;;;;;;4915427;29;20052;-68
2022/06/03 03:33:26;;;;;;;8.52;3.63;;;;;;;;;;4915249;29;20052;-68
2022/06/03 03:36:19;;;;;;;8.15;3.15;;;;;;;;;;4901471;29;20047;-68
2022/06/03 03:39:10;;;;;;;6.50;3.00;;;;;;;;;;4953601;29;20553;-68
2022/06/03 03:42:19;;;;;;;8.90;3.58;;;;;;;;;;4953272;29;20051;-68
2022/06/03 03:45:07;;;;;;;7.70;3.53;;;;;;;;;;4880699;29;20057;-68
2022/06/03 03:48:04;;;;;;;8.10;3.15;;;;;;;;;;4896231;29;20056;-68
2022/06/03 03:50:57;;;;;;;8.40;3.40;;;;;;;;;;4881177;29;20557;-69
2022/06/03 03:53:59;;;;;;;5.13;2.60;;;;;;;;;;4883627;29;20052;-68
2022/06/03 03:57:19;;;;;;;7.68;3.30;;;;;;;;;;4883416;29;20067;-69
2022/06/03 04:00:12;;;;;;;7.05;3.22;;;;;;;;;;4898323;29;20060;-68
2022/06/03 04:03:16;;;;;;;6.88;2.95;;;;;;;;;;4899070;29;20060;-68
2022/06/03 04:06:08;;;;;;;6.72;2.97;;;;;;;;;;4915161;29;20048;-68
2022/06/03 04:09:08;;;;;;;5.88;2.70;;;;;;;;;;4928277;29;20068;-69
2022/06/03 04:11:55;;;;;;;5.60;2.70;;;;;;;;;;4933667;29;20492;-69
2022/06/03 04:14:53;;;;;;;7.60;2.78;;;;;;;;;;4949937;29;20059;-69
2022/06/03 04:17:23;;;;;;;;;;;;;;;;;;4952901;29;20043;-69
2022/06/03 04:20:34;;;;;;;5.82;2.90;;;;;;;;;;4952486;29;20406;-69
2022/06/03 04:23:07;;;;;;;5.30;2.33;;;;;;;;;;4923406;29;20051;-69
2022/06/03 04:26:13;;;;;;;6.75;2.88;;;;;;;;;;4933771;29;20071;-68
2022/06/03 04:28:55;;;;;;;8.75;2.85;;;;;;;;;;4933201;29;20056;-69
2022/06/03 04:32:03;;;;;;;8.10;2.75;;;;;;;;;;4932598;29;20063;-68
2022/06/03 04:34:52;;;;;;;7.60;3.45;;;;;;;;;;4895245;29;20425;-69
2022/06/03 04:37:34;;;;;;;8.70;3.30;;;;;;;;;;4895642;29;20060;-69
2022/06/03 04:40:33;;;;;;;7.25;3.47;;;;;;;;;;4895232;29;20087;-69
2022/06/03 04:43:41;;;;;;;5.47;2.65;;;;;;;;;;4895394;29;20091;-69
2022/06/03 04:46:35;;;;;;;8.25;2.78;;;;;;;;;;4879474;29;20068;-69
2022/06/03 04:49:41;;;;;;;8.02;2.53;;;;;;;;;;4895434;29;20083;-70
2022/06/03 04:52:37;;;;;;;6.95;3.47;;;;;;;;;;4864079;29;20060;-70
2022/06/03 04:55:46;;;;;;;7.63;3.17;;;;;;;;;;4894902;29;20068;-69
2022/06/03 04:58:43;;;;;;;8.43;3.08;;;;;;;;;;4879404;29;20492;-69
2022/06/03 05:01:43;;;;;;;6.13;2.67;;;;;;;;;;4990633;28;20050;-69
2022/06/03 05:04:52;;;;;;;6.07;2.92;;;;;;;;;;4990433;28;20053;-70
2022/06/03 05:08:08;;;;;;;6.72;2.47;;;;;;;;;;4923051;28;20059;-70
2022/06/03 05:11:07;;;;;;;5.32;2.58;;;;;;;;;;4971963;28;20050;-70
2022/06/03 05:14:13;;;;;;;5.47;2.65;;;;;;;;;;4935629;29;20055;-69
2022/06/03 05:17:08;;;;;;;6.55;2.95;;;;;;;;;;4951696;29;20051;-70
2022/06/03 05:20:06;;;;;;;6.70;2.90;;;;;;;;;;4951487;29;20060;-70
2022/06/03 05:22:57;;;;;;;9.38;3.40;;;;;;;;;;4951350;29;20055;-70
2022/06/03 05:25:27;;;;;;;6.65;2.90;;;;;;;;;;4951601;29;20060;-70
2022/06/03 05:28:08;;;;;;;6.45;2.70;;;;;;;;;;4951387;29;20054;-70
2022/06/03 05:31:15;;;;;;;6.63;2.67;;;;;;;;;;4951257;29;20055;-69
2022/06/03 05:34:00;;;;;;;7.20;3.30;;;;;;;;;;4951499;29;20428;-70
2022/06/03 05:36:43;;;;;;;;;;;;;;;;;;4952079;29;20074;-70
2022/06/03 05:39:35;;;;;;;7.45;2.85;;;;;;;;;;4951296;29;19922;-71
2022/06/03 05:42:37;;;;;;;5.80;2.63;;;;;;;;;;4951343;28;20515;-70
2022/06/03 05:45:26;;;;;;;7.03;2.65;;;;;;;;;;4934944;28;20055;-70
2022/06/03 05:48:23;;;;;;;6.57;3.33;;;;;;;;;;4934855;29;20051;-70
2022/06/03 05:51:00;;;;;;;5.40;2.50;;;;;;;;;;4958194;28;20550;-71
2022/06/03 05:53:48;;;;;;;8.57;2.78;;;;;;;;;;4989513;28;20050;-70
2022/06/03 05:56:31;;;;;;;8.77;2.88;;;;;;;;;;4989891;28;20047;-70
2022/06/03 05:59:16;;;;;;;4.82;2.33;;;;;;;;;;4989797;28;20054;-70
2022/06/03 06:02:15;;;;;;;7.82;2.42;;;;;;;;;;4989904;28;20066;-71
2022/06/03 06:05:04;;;;;;;6.65;2.80;;;;;;;;;;4989623;28;20431;-70
2022/06/03 06:07:55;;;;;;;9.50;2.47;;;;;;;;;;4989685;28;20054;-70
2022/06/03 06:10:53;;;;;;;6.05;2.70;;;;;;;;;;4970110;28;20062;-70
2022/06/03 06:13:41;;;;;;;4.45;2.35;;;;;;;;;;4938252;28;20058;-71
2022/06/03 06:16:22;;;;;;;7.13;2.50;;;;;;;;;;4970352;28;20046;-71
2022/06/03 06:19:07;;;;;;;9.05;2.83;;;;;;;;;;4970191;28;20436;-70
2022/06/03 06:22:05;;;;;;;7.05;2.65;;;;;;;;;;4985706;28;20053;-71
2022/06/03 06:24:36;;;;;;;5.85;2.58;;;;;;;;;;5068887;28;20049;-71
2022/06/03 06:27:27;;;;;;;5.60;2.40;;;;;;;;;;5068662;28;20044;-70
2022/06/03 06:30:12;;;;;;;6.32;2.47;;;;;;;;;;5047912;28;20049;-70
2022/06/03 06:32:53;;;;;;;7.55;2.45;;;;;;;;;;5048712;28;20162;-71
2022/06/03 06:35:54;;;;;;;5.35;2.40;;;;;;;;;;5048610;28;20064;-71
2022/06/03 06:38:56;;;;;;;6.10;2.58;;;;;;;;;;5028514;28;20046;-70
2022/06/03 06:42:04;;;;;;;7.40;2.83;;;;;;;;;;5028561;28;20429;-70
2022/06/03 06:45:01;;;;;;;5.03;2.42;;;;;;;;;;5028637;28;20610;-71
2022/06/03 06:47:41;;;;;;;6.35;2.20;;;;;;;;;;5028715;28;20061;-70
2022/06/03 06:50:21;;;;;;;6.28;2.25;;;;;;;;;;5028701;28;20053;-71
2022/06/03 06:53:04;;;;;;;8.35;2.60;;;;;;;;;;5013179;28;20065;-71
2022/06/03 06:55:51;;;;;;;8.38;2.35;;;;;;;;;;5032394;28;20060;-71
2022/06/03 06:58:42;;;;;;;5.00;2.35;;;;;;;;;;5032288;28;20622;-71
2022/06/03 07:01:18;;;;;;;4.68;1.60;;;;;;;;;;5032292;28;20057;-71
2022/06/03 07:04:00;;;;;;;5.63;2.13;;;;;;;;;;5032250;28;20062;-71
2022/06/03 07:06:41;;;;;;;5.68;1.95;;;;;;;;;;4983981;28;20053;-71
2022/06/03 07:09:11;;;;;;;3.97;1.88;;;;;;;;;;5015422;28;20049;-71
2022/06/03 07:11:44;;;;;;;5.05;2.75;;;;;;;;;;5015705;28;20413;-71
2022/06/03 07:14:24;;;;;;;6.22;2.17;;;;;;;;;;5016061;28;20536;-71
2022/06/03 07:20:27;;;;;;;5.15;2.20;;;;;;;;;;5051892;28;20064;-71
2022/06/03 07:23:11;;;;;;;5.65;1.88;;;;;;;;;;5051791;28;20048;-71
2022/06/03 07:25:56;;;;;;;5.88;2.28;;;;;;;;;;5002448;28;20053;-71
2022/06/03 07:28:55;;;;;;;7.15;2.42;;;;;;;;;;5011500;28;20081;-71
2022/06/03 07:31:40;;;;;;;4.32;2.20;;;;;;;;;;5011737;28;20049;-71
2022/06/03 07:34:23;;;;;;;5.60;2.60;;;;;;;;;;5011766;28;20049;-71
2022/06/03 07:37:15;;;;;;;6.35;2.58;;;;;;;;;;5011633;28;20066;-71
2022/06/03 07:40:06;;;;;;;5.75;2.50;;;;;;;;;;5011890;28;20061;-71
2022/06/03 07:43:03;;;;;;;7.32;2.97;;;;;;;;;;5011838;28;20049;-71
2022/06/03 07:45:41;;;;;;;5.50;2.75;;;;;;;;;;4963566;28;20690;-71
2022/06/03 07:48:16;;;;;;;7.15;2.38;;;;;;;;;;5018767;28;20053;-71
2022/06/03 07:50:58;;;;;;;5.93;2.30;;;;;;;;;;4986169;28;20049;-71
2022/06/03 07:53:38;;;;;;;6.43;2.30;;;;;;;;;;4972040;28;20054;-71
2022/06/03 07:56:08;;;;;;;6.60;2.15;;;;;;;;;;4924628;28;20055;-71
2022/06/03 07:58:39;;;;;;;5.15;2.45;;;;;;;;;;4914256;29;20055;-71
2022/06/03 08:01:28;;;;;;;4.88;2.58;;;;;;;;;;4853397;29;20052;-71
2022/06/03 08:03:59;;;;;;;4.30;1.90;;;;;;;;;;4914603;29;20056;-71
2022/06/03 08:12:29;;;;;;;5.03;2.22;;;;;;;;;;4933787;29;20059;-71
2022/06/03 08:15:12;;;;;;;6.07;2.13;;;;;;;;;;4933743;29;20052;-71
2022/06/03 08:17:45;;;;;;;6.32;2.17;;;;;;;;;;4933413;29;20145;-71
2022/06/03 08:20:18;;;;;;;6.05;2.13;;;;;;;;;;4853047;29;20554;-71
2022/06/03 08:22:50;;;;;;;5.00;1.88;;;;;;;;;;4914411;29;20056;-71
2022/06/03 08:25:28;;;;;;;3.58;1.75;;;;;;;;;;4914521;29;20056;-71
2022/06/03 08:27:59;;;;;;;7.68;2.20;;;;;;;;;;4914053;29;20402;-71
2022/06/03 08:30:30;;;;;;;5.38;2.05;;;;;;;;;;4933264;28;20065;-71
2022/06/03 08:33:06;;;;;;;3.95;1.98;;;;;;;;;;4958716;28;20070;-71
2022/06/03 08:35:42;;;;;;;4.65;2.28;;;;;;;;;;4967522;28;20505;-71
2022/06/03 08:38:32;;;;;;;4.82;2.28;;;;;;;;;;5030697;28;20061;-71
2022/06/03 08:41:32;;;;;;;4.88;1.65;;;;;;;;;;5030418;28;20049;-71
2022/06/03 08:44:08;;;;;;;4.22;1.73;;;;;;;;;;5030248;28;20064;-71
2022/06/03 08:46:47;;;;;;;4.88;1.92;;;;;;;;;;5030278;28;20056;-71
2022/06/03 08:49:25;;;;;;;8.60;2.92;;;;;;;;;;5013528;28;20064;-70
2022/06/03 08:52:03;;;;;;;5.55;2.33;;;;;;;;;;4980900;28;20054;-71
2022/06/03 08:54:50;;;;;;;4.75;2.13;;;;;;;;;;5030105;28;20049;-71
2022/06/03 08:57:34;;;;;;;5.88;2.25;;;;;;;;;;4995943;28;20054;-71
2022/06/03 09:00:10;;;;;;;5.78;2.92;;;;;;;;;;5010203;28;20422;-71
2022/06/03 09:03:09;;;;;;;6.88;2.63;;;;;;;;;;5010234;28;20062;-71
2022/06/03 09:06:11;;;;;;;6.93;3.22;;;;;;;;;;4951857;29;20059;-71
2022/06/03 09:08:55;;;;;;;7.40;3.85;;;;;;;;;;4913744;29;20060;-71
2022/06/03 09:11:33;;;;;;;6.88;3.08;;;;;;;;;;4867472;29;20056;-70
2022/06/03 09:14:16;;;;;;;6.22;3.28;;;;;;;;;;4913772;29;20064;-71
2022/06/03 09:16:48;;;;;;;6.55;2.92;;;;;;;;;;4913336;29;20067;-71
2022/06/03 09:19:32;;;;;;;7.00;2.63;;;;;;;;;;4882258;29;20063;-71
2022/06/03 09:22:15;;;;;;;9.45;3.05;;;;;;;;;;4842170;29;20061;-71
2022/06/03 09:24:46;;;;;;;6.20;2.30;;;;;;;;;;4857425;29;20106;-71
2022/06/03 09:27:17;;;;;;;5.63;2.75;;;;;;;;;;4835238;29;20424;-71
2022/06/03 09:29:54;;;;;;;4.60;2.03;;;;;;;;;;4838467;29;20069;-71
2022/06/03 09:32:26;;;;;;;5.05;2.00;;;;;;;;;;4838823;29;20069;-71
2022/06/03 09:35:06;;;;;;;;;;;;;;;;;;4848172;29;20089;-71
2022/06/03 09:37:41;;;;;;;3.83;2.28;;;;;;;;;;4827000;29;19924;-72
2022/06/03 09:40:24;;;;;;;4.65;1.88;;;;;;;;;;4857035;29;20049;-71
2022/06/03 09:43:12;;;;;;;4.00;2.17;;;;;;;;;;4881761;29;20083;-72
2022/06/03 09:45:46;;;;;;;4.93;1.63;;;;;;;;;;4945815;28;20082;-71
2022/06/03 09:48:26;;;;;;;6.97;2.00;;;;;;;;;;4974121;28;20062;-72
2022/06/03 09:51:01;;;;;;;4.32;2.10;;;;;;;;;;4989889;28;20185;-71
2022/06/03 09:53:36;;;;;;;5.50;2.60;;;;;;;;;;4989628;28;20410;-72
2022/06/03 09:56:13;;;;;;;6.18;2.47;;;;;;;;;;4973248;28;20566;-71
2022/06/03 09:58:45;;;;;;;5.03;1.88;;;;;;;;;;4950758;28;20069;-72
2022/06/03 10:01:15;;;;;;;5.55;2.78;;;;;;;;;;4916033;29;20051;-72
2022/06/03 10:04:01;;;;;;;15.32;5.35;;;;;;;;;;4933300;29;20055;-71
2022/06/03 10:06:43;;;;;;;7.95;3.03;;;;;;;;;;4959793;28;20058;-71
2022/06/03 10:18:11;;;;;;;4.85;2.35;;;;;;;;;;4938013;28;20051;-70
2022/06/03 10:20:43;;;;;;;11.48;4.20;;;;;;;;;;4950516;29;20055;-70
2022/06/03 10:23:15;;;;;;;6.75;2.83;;;;;;;;;;4950912;29;20070;-70
2022/06/03 10:26:05;;;;;;;8.57;4.18;;;;;;;;;;4950497;29;20074;-69
2022/06/03 10:28:39;;;;;;;6.65;2.72;;;;;;;;;;4951905;28;20067;-68
2022/06/03 10:31:19;;;;;;;3.67;1.83;;;;;;;;;;4954484;29;20527;-69
2022/06/03 10:33:54;;;;;;;134.88;54.85;;;;;;;;;;4985304;28;20054;-69
2022/06/03 10:36:41;;;;;;;281.83;125.53;;;;;;;;;;5012988;28;20418;-69
2022/06/03 10:39:16;;;;;;;48.00;23.25;;;;;;;;;;4964160;28;20050;-69
2022/06/03 10:41:49;;;;;;;13.50;5.90;;;;;;;;;;4973754;28;20470;-69
2022/06/03 10:44:22;;;;;;;12.20;4.97;;;;;;;;;;4973934;28;20051;-69
2022/06/03 10:46:54;;;;;;;5.05;2.45;;;;;;;;;;4973849;28;20058;-69
2022/06/03 10:49:28;;;;;;;7.68;3.72;;;;;;;;;;4973697;28;20047;-69
2022/06/03 11:03:27;;;;;;;6.72;2.97;;;;;;;;;;4979856;28;20046;-69
2022/06/03 11:06:03;;;;;;;8.02;3.13;;;;;;;;;;4992309;28;20057;-69
2022/06/03 11:08:59;;;;;;;7.47;3.92;;;;;;;;;;4992869;28;20394;-69
2022/06/03 11:12:10;;;;;;;3.78;1.83;;;;;;;;;;4992722;28;20070;-69
2022/06/03 11:14:42;;;;;;;4.95;2.50;;;;;;;;;;4915788;29;20083;-69
2022/06/03 11:17:19;;;;;;;4.25;1.77;;;;;;;;;;4915639;29;20056;-70
2022/06/03 11:19:53;;;;;;;4.97;2.63;;;;;;;;;;4915436;29;20052;-69
2022/06/03 11:22:39;;;;;;;4.45;2.20;;;;;;;;;;4915598;29;20051;-70
2022/06/03 11:25:21;;;;;;;4.18;1.85;;;;;;;;;;4884150;29;20068;-69
2022/06/03 11:28:06;;;;;;;2.95;1.42;;;;;;;;;;4915264;29;20060;-69
2022/06/03 11:30:59;;;;;;;4.20;2.10;;;;;;;;;;4915215;29;20432;-68
2022/06/03 11:34:04;;;;;;;3.65;1.90;;;;;;;;;;4883891;29;20056;-70
2022/06/03 11:36:54;;;;;;;6.07;3.05;;;;;;;;;;4915520;29;20567;-69
2022/06/03 11:39:27;;;;;;;5.72;2.95;;;;;;;;;;4915004;29;20429;-68
2022/06/03 11:42:23;;;;;;;6.20;2.22;;;;;;;;;;4915807;29;20068;-69
2022/06/03 11:44:57;;;;;;;5.35;2.40;;;;;;;;;;4934139;29;20063;-68
2022/06/03 11:47:29;;;;;;;6.82;2.53;;;;;;;;;;4914944;29;20059;-69
2022/06/03 11:50:00;;;;;;;6.40;3.17;;;;;;;;;;4915415;29;20052;-68
2022/06/03 11:52:31;;;;;;;11.00;7.45;;;;;;;;;;4972404;28;20416;-69
2022/06/03 11:55:01;;;;;;;5.68;3.00;;;;;;;;;;4902220;29;20051;-68
2022/06/03 11:57:31;;;;;;;9.02;4.50;;;;;;;;;;4938224;28;20062;-69
2022/06/03 12:00:07;;;;;;;4.75;1.98;;;;;;;;;;4972491;28;20058;-68
2022/06/03 12:03:06;;;;;;;6.35;3.25;;;;;;;;;;4973242;28;20054;-69
2022/06/03 12:05:48;;;;;;;8.55;4.18;;;;;;;;;;4993480;28;20062;-69
2022/06/03 12:08:34;;;;;;;5.88;2.85;;;;;;;;;;5011473;28;20050;-69
2022/06/03 12:11:10;;;;;;;7.10;3.13;;;;;;;;;;5011181;28;20046;-71
2022/06/03 12:13:40;;;;;;;4.90;1.95;;;;;;;;;;4978533;28;20049;-68
2022/06/03 12:16:17;;;;;;;5.60;3.10;;;;;;;;;;4978509;28;20050;-69
2022/06/03 12:19:05;;;;;;;11.82;6.22;;;;;;;;;;4978722;28;20058;-69
2022/06/03 12:21:44;;;;;;;7.50;5.47;;;;;;;;;;4991110;28;20414;-69
2022/06/03 12:24:20;;;;;;;7.80;2.78;;;;;;;;;;4962146;28;20068;-70
2022/06/03 12:26:50;;;;;;;4.13;1.88;;;;;;;;;;5010800;28;20069;-69
2022/06/03 12:29:36;;;;;;;5.38;2.60;;;;;;;;;;4991133;28;20050;-69
2022/06/03 12:32:17;;;;;;;4.72;2.47;;;;;;;;;;4986784;28;20058;-69
2022/06/03 12:34:47;;;;;;;4.60;1.73;;;;;;;;;;5030352;28;20473;-68
2022/06/03 12:37:26;;;;;;;4.75;1.70;;;;;;;;;;4950128;28;20053;-69
2022/06/03 12:40:05;;;;;;;4.57;2.33;;;;;;;;;;4950280;28;20100;-69
2022/06/03 12:42:37;;;;;;;;;;;;;;;;;;5030892;28;20046;-69
2022/06/03 12:45:13;;;;;;;8.27;3.05;;;;;;;;;;5014438;28;19921;-69
2022/06/03 12:47:49;;;;;;;6.15;2.80;;;;;;;;;;4981424;28;20150;-68
2022/06/03 12:50:35;;;;;;;12.48;5.65;;;;;;;;;;4974353;28;20584;-69
2022/06/03 12:53:37;;;;;;;11.77;4.72;;;;;;;;;;4958913;28;20051;-69
2022/06/03 12:56:20;;;;;;;4.78;2.40;;;;;;;;;;4958804;28;20055;-69
2022/06/03 12:58:59;;;;;;;7.30;3.30;;;;;;;;;;4997591;28;20057;-69
2022/06/03 13:01:40;;;;;;;4.97;2.45;;;;;;;;;;4971024;28;20514;-69
2022/06/03 13:04:43;;;;;;;6.40;2.75;;;;;;;;;;4971273;28;20062;-69
2022/06/03 13:07:27;;;;;;;6.35;2.88;;;;;;;;;;4994459;28;20556;-69
2022/06/03 13:10:04;;;;;;;7.45;3.80;;;;;;;;;;4961628;28;20065;-69
2022/06/03 13:12:37;;;;;;;4.30;2.67;;;;;;;;;;5010185;28;20415;-68
2022/06/03 13:15:24;;;;;;;9.45;3.78;;;;;;;;;;5010141;28;20061;-68
2022/06/03 13:20:50;;;;;;;7.80;4.13;;;;;;;;;;4990430;28;20054;-69
2022/06/03 13:23:20;;;;;;;8.98;3.00;;;;;;;;;;4975006;28;20511;-69
2022/06/03 13:25:52;;;;;;;7.07;3.30;;;;;;;;;;4951353;28;20054;-69
2022/06/03 13:28:38;;;;;;;7.28;3.72;;;;;;;;;;4925470;29;20059;-69
2022/06/03 13:31:34;;;;;;;5.28;2.55;;;;;;;;;;4932250;29;20060;-68
2022/06/03 13:36:52;;;;;;;;;;;;;;;;;;4894629;29;20060;-68
2022/06/03 13:39:25;;;;;;;5.25;2.70;;;;;;;;;;4928041;29;19923;-70
2022/06/03 13:44:53;;;;;;;4.20;1.80;;;;;;;;;;4950814;28;20059;-68
2022/06/03 13:47:28;;;;;;;5.53;2.58;;;;;;;;;;4950733;28;20067;-69
2022/06/03 13:50:24;;;;;;;4.60;2.20;;;;;;;;;;4950342;28;20044;-69
2022/06/03 13:53:00;;;;;;;6.10;2.85;;;;;;;;;;4912373;29;20055;-68
2022/06/03 13:55:44;;;;;;;4.70;2.33;;;;;;;;;;4881473;29;20071;-69
2022/06/03 13:58:41;;;;;;;5.22;3.00;;;;;;;;;;4912706;29;20052;-69
2022/06/03 14:01:32;;;;;;;4.43;2.33;;;;;;;;;;4912825;29;20060;-68
2022/06/03 14:04:07;;;;;;;5.78;3.58;;;;;;;;;;4911633;29;20048;-68
2022/06/03 14:06:47;;;;;;;7.32;2.38;;;;;;;;;;4941318;29;20051;-69
2022/06/03 14:09:22;;;;;;;8.07;3.13;;;;;;;;;;4918089;29;20050;-70
2022/06/03 14:12:10;;;;;;;4.82;1.95;;;;;;;;;;4994284;28;20057;-69
2022/06/03 14:15:05;;;;;;;4.80;2.10;;;;;;;;;;5019366;28;20049;-69
2022/06/03 14:17:55;;;;;;;2.92;1.67;;;;;;;;;;4983789;28;20431;-69
2022/06/03 14:20:35;;;;;;;14.45;6.55;;;;;;;;;;4979466;28;20050;-68
2022/06/03 14:23:30;;;;;;;7.28;3.28;;;;;;;;;;5009057;28;20160;-68
2022/06/03 14:26:15;;;;;;;14.45;5.95;;;;;;;;;;5008983;28;20521;-68
2022/06/03 14:29:01;;;;;;;6.15;2.97;;;;;;;;;;4979134;28;20060;-71
2022/06/03 14:31:48;;;;;;;4.93;1.80;;;;;;;;;;5011626;28;20049;-69
2022/06/03 14:34:19;;;;;;;4.68;2.22;;;;;;;;;;5028549;28;20061;-69
2022/06/03 14:36:51;;;;;;;13.25;5.97;;;;;;;;;;5011969;28;20049;-69
2022/06/03 14:39:29;;;;;;;4.85;2.05;;;;;;;;;;5028449;28;20050;-70
2022/06/03 14:42:07;;;;;;;4.45;2.13;;;;;;;;;;5053756;28;20053;-69
2022/06/03 14:44:42;;;;;;;5.43;2.80;;;;;;;;;;5055405;28;20056;-70
2022/06/03 14:47:22;;;;;;;4.03;2.00;;;;;;;;;;5069342;28;20052;-69
2022/06/03 14:49:58;;;;;;;4.35;2.03;;;;;;;;;;5068290;28;20125;-69
2022/06/03 14:52:41;;;;;;;14.38;6.25;;;;;;;;;;5018959;28;20408;-71
2022/06/03 14:55:21;;;;;;;4.15;1.92;;;;;;;;;;5068282;28;20053;-69
2022/06/03 14:58:03;;;;;;;2.67;1.08;;;;;;;;;;5068265;28;20547;-70
2022/06/03 15:00:57;;;;;;;7.15;3.60;;;;;;;;;;5068304;28;20428;-69
2022/06/03 15:03:43;;;;;;;6.25;2.88;;;;;;;;;;5051246;28;20053;-69
2022/06/03 15:06:19;;;;;;;4.38;2.08;;;;;;;;;;5036399;28;20419;-69
2022/06/03 15:09:07;;;;;;;5.53;2.25;;;;;;;;;;5069359;28;20404;-70
2022/06/03 15:11:58;;;;;;;3.17;1.67;;;;;;;;;;5047929;28;20053;-70
2022/06/03 15:14:30;;;;;;;5.10;2.50;;;;;;;;;;5049090;28;20092;-69
2022/06/03 15:17:03;;;;;;;6.75;3.50;;;;;;;;;;5051893;28;20064;-70
2022/06/03 15:19:32;;;;;;;;;;;;;;;;;;5003165;28;20053;-69
2022/06/03 15:22:07;;;;;;;7.25;2.15;;;;;;;;;;5035383;28;19921;-69
2022/06/03 15:24:46;;;;;;;6.90;2.78;;;;;;;;;;5011995;28;20060;-69
2022/06/03 15:27:24;;;;;;;7.30;3.10;;;;;;;;;;4995376;28;20057;-69
2022/06/03 15:29:55;;;;;;;5.32;2.42;;;;;;;;;;5011442;28;20151;-70
2022/06/03 15:32:26;;;;;;;4.85;2.65;;;;;;;;;;5012057;28;20066;-70
2022/06/03 15:35:03;;;;;;;6.90;3.17;;;;;;;;;;4992008;28;20058;-69
2022/06/03 15:37:37;;;;;;;4.80;2.17;;;;;;;;;;4992371;28;20054;-70
2022/06/03 15:40:08;;;;;;;3.08;1.63;;;;;;;;;;4992060;28;20054;-69
2022/06/03 15:42:38;;;;;;;5.45;2.53;;;;;;;;;;4991841;28;20185;-69
2022/06/03 15:45:18;;;;;;;4.95;2.55;;;;;;;;;;4972238;28;20050;-69
2022/06/03 15:48:00;;;;;;;4.68;2.30;;;;;;;;;;4956734;28;20176;-69
2022/06/03 15:50:30;;;;;;;6.38;3.20;;;;;;;;;;4933846;29;20439;-69
2022/06/03 15:53:03;;;;;;;5.97;2.55;;;;;;;;;;4944873;29;20044;-69
2022/06/03 15:55:44;;;;;;;5.97;2.50;;;;;;;;;;4886996;29;20129;-70
2022/06/03 15:58:43;;;;;;;4.30;1.70;;;;;;;;;;4933984;29;20196;-69
2022/06/03 16:01:22;;;;;;;5.13;2.38;;;;;;;;;;4878484;29;20065;-69
2022/06/03 16:04:08;;;;;;;5.13;2.70;;;;;;;;;;4864816;29;20063;-70
2022/06/03 16:06:54;;;;;;;3.05;1.30;;;;;;;;;;4849037;29;20049;-69
2022/06/03 16:09:39;;;;;;;5.57;2.60;;;;;;;;;;4865359;29;20170;-69
2022/06/03 16:12:18;;;;;;;;;;;;;;;;;;4896341;29;20068;-69
2022/06/03 16:15:34;;;;;;;7.93;2.15;;;;;;;;;;4858149;29;19931;-69
2022/06/03 16:18:23;;;;;;;4.43;2.05;;;;;;;;;;4839966;29;20113;-74
2022/06/03 16:21:07;;;;;;;3.15;1.63;;;;;;;;;;4840107;29;20054;-69
2022/06/03 16:23:42;;;;;;;4.28;1.63;;;;;;;;;;4871271;29;20059;-70
2022/06/03 16:26:35;;;;;;;2.17;1.27;;;;;;;;;;4845003;29;20060;-70
2022/06/03 16:29:29;;;;;;;6.78;1.85;;;;;;;;;;4893531;29;20060;-69
2022/06/03 16:32:15;;;;;;;7.15;3.28;;;;;;;;;;4925634;29;20420;-72
2022/06/03 16:35:07;;;;;;;4.68;2.35;;;;;;;;;;4952408;29;20103;-69
2022/06/03 16:37:46;;;;;;;;;;;;;;;;;;4970804;28;20059;-69
2022/06/03 16:40:48;;;;;;;4.18;1.45;;;;;;;;;;4955881;28;19933;-69
2022/06/03 16:43:48;;;;;;;4.20;1.90;;;;;;;;;;4923933;28;20046;-69
2022/06/03 16:46:40;;;;;;;4.60;1.80;;;;;;;;;;4932951;29;20051;-68
2022/06/03 16:49:27;;;;;;;6.07;2.42;;;;;;;;;;4894750;29;20067;-68
2022/06/03 16:52:01;;;;;;;5.22;2.38;;;;;;;;;;4900437;29;20413;-68
2022/06/03 16:54:36;;;;;;;5.60;2.67;;;;;;;;;;4895561;29;20056;-68
2022/06/03 16:57:21;;;;;;;7.38;2.65;;;;;;;;;;4909423;29;20057;-69
2022/06/03 17:00:17;;;;;;;4.93;1.95;;;;;;;;;;4895160;29;20060;-69
2022/06/03 17:02:56;;;;;;;4.93;1.95;;;;;;;;;;4894653;29;20067;-68
2022/06/03 17:05:27;;;;;;;4.65;2.28;;;;;;;;;;4863981;29;20599;-68
2022/06/03 17:08:02;;;;;;;3.63;1.55;;;;;;;;;;4913161;29;20056;-69
2022/06/03 17:10:34;;;;;;;5.30;2.08;;;;;;;;;;4897745;29;20063;-69
2022/06/03 17:13:07;;;;;;;4.53;2.05;;;;;;;;;;4913489;29;20067;-69